Mountain Home, ID (83647)

10:51 PM MST on December 24, 2014 (GMT -0700)
NonFedAWOS MOUNTAIN HOME ID US SUPERAWOS | Change Station
CLOSE
Current Station
Personal Weather Station
Location: Mountain Home, ID
Elevation: 3160 ft
Nearby Weather Stations

Elev 3160 ft 43.13 °N, 115.73 °W | Updated 36 minutes ago

Snow
Snow
32 °F
Feels Like 17 °F
N
31
Wind Variable Wind from West
Gusts 44.0 mph

Today
High -- | Low -- °F
--% Chance of Precip.
Yesterday
High -- | Low -- °F
Precip. -- in
8:12 AM 5:12 PM
Waxing Crescent, 13% visible
Pressure 29.57 in
Visibility 10.0 miles
Clouds Overcast 7000 ft
Windchill 17 °F
Dew Point 32 °F
Humidity 100%
Rainfall -999.00 in
Snow Depth Not available.
UV 0 out of 12
Pollen .10 out of 12
Air Quality Not available.
Flu Activity Not available.
METAR KMUO 250458Z AUTO 30034G41KT 10SM -RA OVC070 01/M01 A2952 RMK AO2 PK WND 29044/20 FZRAE24RAB24 SLP012 P0000 T00051015

More Conditions Fewer Conditions

Pressure 29.57 in
Visibility 10.0 miles
Clouds Overcast 7000 ft
Windchill 17 °F
Dew Point 32 °F
Humidity 100%
Rainfall -999.00 in
Snow Depth Not available.
UV 0 out of 12
Pollen .10 out of 12
Air Quality Not available.
Flu Activity Not available.
METAR KMUO 250458Z AUTO 30034G41KT 10SM -RA OVC070 01/M01 A2952 RMK AO2 PK WND 29044/20 FZRAE24RAB24 SLP012 P0000 T00051015

More Conditions Fewer Conditions

10-Day Weather Forecast

Almanac

Astronomy

Dec. 24, 2014 Rise Set
Actual Time
Civil Twilight
Nautical Twilight
Astronomical Twilight
Moon
Length of Visible Light
Length of Day
Tomorrow will be .
, % of the Moon is Illuminated

Today's Extremes

State Highs State Lows

Community

WunderPhotos

Upload Photos

1,780,244 photos uploaded!

WunderBlogs® & News

Nearby

Air Quality

  Air Quality AQ Index Pollutant
Not available.

Snow Depth

Station Depth Elevation

Earthquake Activity

City Distance Mag. Time & Date
Minimum magnitude displayed is 2.5.

Coastal Water Temperatures

Place Temperature

Nearby Weather Stations